Time;durP1;ratioP1;P1;durP2;ratioP2;P2;SDS_P1;SDS_P2;PMS_P1;PMS_P2;Temp;Humidity;BMP_temperature;BMP_pressure;BME280_temperature;BME280_humidity;BME280_pressure;Samples;Min_cycle;Max_cycle;Signal;HPM_P1;HPM_P2
2023/09/15 00:00:23;;;;;;;12.55;8.75;;;16.80;85.50;;;;;;5053625;28;20112;-78
2023/09/15 00:02:49;;;;;;;13.50;9.02;;;16.80;85.50;;;;;;5052901;28;20055;-78
2023/09/15 00:05:15;;;;;;;16.10;8.88;;;16.80;85.50;;;;;;5052550;28;20034;-78
2023/09/15 00:07:41;;;;;;;14.07;8.90;;;16.70;85.60;;;;;;5053333;28;20025;-78
2023/09/15 00:10:07;;;;;;;11.45;7.70;;;16.60;85.90;;;;;;5036105;28;20021;-78
2023/09/15 00:12:34;;;;;;;11.18;8.70;;;16.50;85.80;;;;;;5053406;28;20029;-78
2023/09/15 00:15:10;;;;;;;11.00;8.38;;;16.50;86.00;;;;;;5053532;28;20040;-78
2023/09/15 00:17:36;;;;;;;11.73;8.10;;;16.50;85.80;;;;;;5053426;28;20051;-78
2023/09/15 00:20:13;;;;;;;13.52;8.55;;;16.50;85.80;;;;;;5053421;28;20021;-78
2023/09/15 00:22:49;;;;;;;12.85;8.98;;;16.50;86.10;;;;;;5053390;28;20017;-78
2023/09/15 00:25:18;;;;;;;11.07;7.43;;;16.40;85.90;;;;;;5053303;28;20059;-78
2023/09/15 00:27:45;;;;;;;13.43;7.78;;;16.40;86.10;;;;;;5053286;28;20456;-78
2023/09/15 00:30:13;;;;;;;12.45;8.18;;;16.40;86.20;;;;;;5035655;28;20056;-78
2023/09/15 00:32:39;;;;;;;12.48;8.57;;;16.40;86.30;;;;;;5052267;28;20476;-78
2023/09/15 00:35:05;;;;;;;13.32;7.82;;;16.40;86.40;;;;;;5053210;28;20041;-78
2023/09/15 00:37:31;;;;;;;11.38;7.63;;;16.40;86.20;;;;;;5035803;28;20105;-78
2023/09/15 00:39:57;;;;;;;14.70;8.27;;;16.40;86.30;;;;;;5052131;28;20435;-78
2023/09/15 00:42:24;;;;;;;12.43;8.25;;;16.30;86.00;;;;;;5052297;28;20056;-78
2023/09/15 00:44:51;;;;;;;11.75;7.85;;;16.30;86.20;;;;;;5053094;28;20029;-78
2023/09/15 00:47:17;;;;;;;10.82;7.72;;;16.20;86.40;;;;;;5052219;28;20013;-78
2023/09/15 00:49:45;;;;;;;12.15;7.97;;;16.20;86.50;;;;;;5053076;28;20021;-78
2023/09/15 00:52:11;;;;;;;11.45;7.70;;;16.10;86.60;;;;;;5052057;28;20028;-78
2023/09/15 00:54:38;;;;;;;15.25;7.22;;;16.10;86.90;;;;;;5052115;28;20033;-78
2023/09/15 00:57:05;;;;;;;10.98;7.45;;;16.20;86.80;;;;;;5052053;28;20041;-78
2023/09/15 00:59:31;;;;;;;11.20;6.38;;;16.20;86.60;;;;;;5052992;28;20030;-78
2023/09/15 01:01:58;;;;;;;8.65;6.38;;;16.30;86.30;;;;;;5051915;28;20025;-77
2023/09/15 01:04:27;;;;;;;10.40;7.10;;;16.30;86.10;;;;;;5052897;28;20029;-78
2023/09/15 01:06:55;;;;;;;11.65;6.45;;;16.30;86.10;;;;;;5052911;28;20014;-78
2023/09/15 01:09:22;;;;;;;10.65;6.60;;;16.30;86.10;;;;;;5052910;28;20045;-78
2023/09/15 01:11:50;;;;;;;10.45;7.13;;;16.30;86.10;;;;;;5051907;28;20089;-78
2023/09/15 01:14:16;;;;;;;10.27;7.10;;;16.30;85.70;;;;;;5051979;28;20038;-78
2023/09/15 01:17:02;;;;;;;10.55;7.70;;;16.30;85.70;;;;;;5051882;28;20094;-79
2023/09/15 01:19:53;;;;;;;11.77;7.35;;;16.30;85.70;;;;;;5055364;28;20049;-78
2023/09/15 01:22:57;;;;;;;11.23;8.27;;;16.30;85.70;;;;;;5055750;28;20036;-78
2023/09/15 01:25:31;;;;;;;14.93;7.75;;;16.20;85.90;;;;;;5015245;28;20034;-78
2023/09/15 01:28:05;;;;;;;11.48;7.55;;;16.10;86.00;;;;;;5015387;28;20038;-78
2023/09/15 01:30:32;;;;;;;11.05;7.47;;;16.00;86.20;;;;;;5039258;28;20053;-78
2023/09/15 01:32:59;;;;;;;10.77;7.38;;;15.90;86.40;;;;;;5055341;28;20034;-79
2023/09/15 01:35:25;;;;;;;11.20;7.78;;;15.90;86.80;;;;;;5055356;28;20032;-78
2023/09/15 01:37:51;;;;;;;11.77;7.47;;;15.90;86.90;;;;;;5055338;28;20014;-78
2023/09/15 01:40:17;;;;;;;10.93;7.47;;;15.80;86.80;;;;;;5056305;28;20025;-78
2023/09/15 01:42:44;;;;;;;10.48;7.32;;;15.80;86.80;;;;;;5038651;28;20025;-78
2023/09/15 01:45:10;;;;;;;10.80;7.18;;;15.80;86.80;;;;;;5056107;28;20053;-78
2023/09/15 01:47:36;;;;;;;10.65;6.93;;;15.80;86.80;;;;;;5055158;28;20032;-78
2023/09/15 01:50:03;;;;;;;10.27;7.20;;;15.90;86.90;;;;;;5056050;28;20025;-78
2023/09/15 01:52:29;;;;;;;10.93;7.57;;;15.90;86.90;;;;;;5054949;28;20025;-78
2023/09/15 01:54:56;;;;;;;12.70;8.00;;;15.80;86.90;;;;;;5055019;28;20040;-78
2023/09/15 01:57:22;;;;;;;12.65;7.45;;;15.80;87.10;;;;;;5055974;28;20101;-78
2023/09/15 01:59:48;;;;;;;11.20;7.45;;;15.70;87.20;;;;;;5055978;28;20047;-77
2023/09/15 02:02:14;;;;;;;13.25;7.70;;;15.70;87.30;;;;;;5054809;28;20040;-77
2023/09/15 02:04:40;;;;;;;13.63;7.57;;;15.70;87.40;;;;;;5054855;28;20034;-78
2023/09/15 02:07:06;;;;;;;12.90;7.63;;;15.70;87.60;;;;;;5055791;28;20024;-78
2023/09/15 02:09:31;;;;;;;12.05;6.97;;;15.70;87.40;;;;;;5055727;28;20029;-78
2023/09/15 02:11:58;;;;;;;15.45;7.93;;;15.70;87.20;;;;;;5055629;28;20040;-78
2023/09/15 02:14:25;;;;;;;13.20;7.63;;;15.70;87.40;;;;;;5055812;28;20090;-77
2023/09/15 02:16:51;;;;;;;12.60;7.25;;;15.70;87.40;;;;;;5054702;28;20021;-78
2023/09/15 02:19:18;;;;;;;12.70;7.25;;;15.70;87.10;;;;;;5055552;28;20071;-78
2023/09/15 02:21:44;;;;;;;13.13;7.35;;;15.70;87.30;;;;;;5054701;28;20032;-78
2023/09/15 02:24:10;;;;;;;12.57;7.45;;;15.70;87.60;;;;;;5054451;28;20113;-78
2023/09/15 02:26:35;;;;;;;12.90;7.30;;;15.70;87.30;;;;;;5054581;28;20100;-78
2023/09/15 02:29:01;;;;;;;11.98;7.38;;;15.80;87.30;;;;;;5055121;28;20116;-78
2023/09/15 02:31:26;;;;;;;12.18;7.07;;;15.70;87.20;;;;;;5055344;28;20029;-78
2023/09/15 02:33:52;;;;;;;12.18;6.97;;;15.70;86.90;;;;;;5054241;28;20037;-78
2023/09/15 02:36:18;;;;;;;11.43;7.47;;;15.80;86.80;;;;;;5054297;28;20034;-78
2023/09/15 02:38:43;;;;;;;14.32;7.88;;;15.70;86.70;;;;;;5055242;28;20032;-78
2023/09/15 02:41:09;;;;;;;13.63;8.45;;;15.70;86.50;;;;;;5037614;28;20038;-78
2023/09/15 02:43:35;;;;;;;14.40;7.80;;;15.70;86.70;;;;;;5055128;28;20037;-78
2023/09/15 02:46:04;;;;;;;13.40;8.10;;;15.70;86.90;;;;;;5037364;28;20029;-77
2023/09/15 02:48:30;;;;;;;13.77;8.13;;;15.70;87.00;;;;;;5037541;28;20022;-78
2023/09/15 02:50:58;;;;;;;11.02;7.40;;;15.70;86.80;;;;;;5054980;28;20028;-78
2023/09/15 02:53:24;;;;;;;16.55;7.97;;;15.70;86.80;;;;;;5054933;28;20029;-78
2023/09/15 02:56:16;;;;;;;16.92;8.63;;;15.60;86.90;;;;;;5053831;28;20040;-78
2023/09/15 02:58:41;;;;;;;11.38;7.30;;;15.60;86.80;;;;;;5052909;28;20132;-78
2023/09/15 03:01:14;;;;;;;11.20;7.45;;;15.60;87.00;;;;;;5053823;28;20048;-78
2023/09/15 03:03:40;;;;;;;12.52;7.80;;;15.60;87.10;;;;;;5037796;28;20030;-78
2023/09/15 03:06:07;;;;;;;13.88;7.88;;;15.60;87.00;;;;;;5037143;28;20459;-78
2023/09/15 03:08:33;;;;;;;12.85;7.72;;;15.60;87.10;;;;;;5053617;28;20022;-79
2023/09/15 03:10:59;;;;;;;14.60;7.40;;;15.60;87.20;;;;;;5054566;28;20030;-78
2023/09/15 03:13:25;;;;;;;12.80;7.57;;;15.60;87.10;;;;;;5054489;28;20056;-78
2023/09/15 03:15:51;;;;;;;13.85;7.63;;;15.60;87.10;;;;;;5054546;28;20055;-78
2023/09/15 03:18:17;;;;;;;16.50;7.45;;;15.60;87.10;;;;;;5053465;28;20033;-78
2023/09/15 03:20:43;;;;;;;14.35;7.65;;;15.60;87.10;;;;;;5053402;28;20031;-78
2023/09/15 03:23:08;;;;;;;12.75;6.80;;;15.60;87.00;;;;;;5053316;28;20030;-78
2023/09/15 03:25:34;;;;;;;13.57;6.70;;;15.60;87.20;;;;;;5036814;28;20029;-78
2023/09/15 03:28:00;;;;;;;13.65;7.10;;;15.50;87.10;;;;;;5054095;28;20029;-78
2023/09/15 03:30:26;;;;;;;13.10;7.55;;;15.50;87.10;;;;;;5053320;28;20075;-77
2023/09/15 03:32:52;;;;;;;12.07;6.97;;;15.50;87.20;;;;;;5053354;28;20026;-78
2023/09/15 03:35:18;;;;;;;15.40;7.60;;;15.50;87.30;;;;;;5036617;28;20056;-78
2023/09/15 03:37:44;;;;;;;13.27;6.72;;;15.50;87.30;;;;;;5053050;28;20033;-78
2023/09/15 03:40:11;;;;;;;11.95;6.38;;;15.50;87.20;;;;;;5053053;28;20036;-78
2023/09/15 03:42:37;;;;;;;15.10;7.55;;;15.40;87.20;;;;;;5053565;28;20017;-78
2023/09/15 03:45:08;;;;;;;12.93;7.63;;;15.50;88.10;;;;;;5036377;28;20026;-78
2023/09/15 03:47:33;;;;;;;14.88;8.07;;;15.40;87.20;;;;;;5052989;28;20025;-78
2023/09/15 03:49:59;;;;;;;14.75;7.05;;;15.40;87.20;;;;;;5036453;28;20024;-78
2023/09/15 03:52:25;;;;;;;16.88;7.53;;;15.40;87.30;;;;;;5052907;28;20049;-78
2023/09/15 03:54:50;;;;;;;14.90;7.07;;;15.40;87.40;;;;;;5052912;28;20030;-78
2023/09/15 03:57:16;;;;;;;13.65;7.32;;;15.30;87.50;;;;;;5036217;28;20068;-78
2023/09/15 03:59:41;;;;;;;11.30;6.90;;;15.30;87.50;;;;;;5053681;28;20033;-78
2023/09/15 04:02:07;;;;;;;18.30;7.75;;;15.30;87.50;;;;;;5053699;28;20089;-78
2023/09/15 04:04:34;;;;;;;13.98;6.93;;;15.30;87.70;;;;;;5052619;28;20052;-78
2023/09/15 04:06:59;;;;;;;11.98;6.70;;;15.20;87.70;;;;;;5053584;28;20045;-78
2023/09/15 04:09:25;;;;;;;11.82;7.13;;;15.20;87.70;;;;;;5052565;28;20079;-78
2023/09/15 04:11:51;;;;;;;13.38;6.20;;;15.20;87.80;;;;;;5052514;28;20052;-78
2023/09/15 04:14:17;;;;;;;13.07;6.53;;;15.20;87.80;;;;;;5052601;28;20040;-78
2023/09/15 04:16:43;;;;;;;10.60;6.05;;;15.20;87.80;;;;;;5052449;28;20029;-78
2023/09/15 04:19:09;;;;;;;16.27;7.65;;;15.20;87.70;;;;;;5052497;28;20075;-78
2023/09/15 04:21:37;;;;;;;12.07;7.05;;;15.20;87.60;;;;;;5052327;28;20045;-78
2023/09/15 04:24:03;;;;;;;11.80;6.60;;;15.20;87.70;;;;;;5052416;28;20077;-78
2023/09/15 04:26:29;;;;;;;10.73;6.28;;;15.20;87.70;;;;;;5052472;28;20022;-78
2023/09/15 04:28:54;;;;;;;9.30;5.72;;;15.20;87.60;;;;;;5053116;28;20046;-77
2023/09/15 04:31:20;;;;;;;12.65;6.55;;;15.20;87.70;;;;;;5053248;28;20044;-78
2023/09/15 04:33:48;;;;;;;14.27;6.80;;;15.10;87.90;;;;;;5052269;28;20038;-78
2023/09/15 04:36:13;;;;;;;11.15;6.25;;;15.00;88.10;;;;;;5053207;28;20022;-78
2023/09/15 04:38:39;;;;;;;11.82;6.05;;;15.00;88.20;;;;;;5052140;28;20030;-78
2023/09/15 04:41:05;;;;;;;12.80;7.10;;;14.90;88.30;;;;;;5053110;28;20017;-77
2023/09/15 04:43:31;;;;;;;11.18;6.00;;;14.90;88.30;;;;;;5035694;28;20030;-78
2023/09/15 04:45:57;;;;;;;11.95;6.30;;;15.00;88.20;;;;;;5035560;28;20017;-78
2023/09/15 04:48:23;;;;;;;12.00;5.80;;;15.00;88.20;;;;;;5053063;28;20029;-78
2023/09/15 04:50:49;;;;;;;11.25;7.03;;;15.00;88.20;;;;;;5052158;28;20026;-78
2023/09/15 04:53:15;;;;;;;12.52;6.53;;;15.00;88.10;;;;;;5052685;28;20038;-78
2023/09/15 04:55:40;;;;;;;11.18;6.85;;;15.00;88.10;;;;;;5057244;28;20025;-78
2023/09/15 04:58:06;;;;;;;9.82;6.20;;;15.00;88.30;;;;;;5057097;28;20022;-78
2023/09/15 05:00:34;;;;;;;10.18;6.13;;;15.00;88.30;;;;;;5057043;28;20026;-78
2023/09/15 05:03:00;;;;;;;13.85;6.13;;;15.00;88.30;;;;;;5057025;28;20024;-78
2023/09/15 05:05:26;;;;;;;12.30;6.70;;;15.00;88.40;;;;;;5056881;28;20033;-78
2023/09/15 05:07:52;;;;;;;11.63;6.22;;;15.00;88.40;;;;;;5055999;28;20573;-79
2023/09/15 05:10:18;;;;;;;11.65;6.65;;;15.00;88.40;;;;;;5056722;28;20045;-78
2023/09/15 05:12:44;;;;;;;10.68;6.15;;;15.00;88.50;;;;;;5055940;28;20072;-78
2023/09/15 05:15:10;;;;;;;14.27;6.82;;;15.00;88.50;;;;;;5055790;28;20029;-78
2023/09/15 05:17:36;;;;;;;12.05;6.47;;;15.00;88.70;;;;;;5055690;28;20026;-78
2023/09/15 05:20:02;;;;;;;10.38;5.82;;;15.00;88.70;;;;;;5056687;28;20080;-78
2023/09/15 05:22:28;;;;;;;12.32;6.78;;;14.90;88.70;;;;;;5055607;28;20029;-79
2023/09/15 05:24:55;;;;;;;9.75;6.30;;;14.90;88.80;;;;;;5056621;28;20029;-78
2023/09/15 05:27:20;;;;;;;11.38;5.72;;;14.90;88.90;;;;;;5056545;28;20072;-78
2023/09/15 05:29:46;;;;;;;11.75;6.22;;;14.90;88.90;;;;;;5054496;28;20109;-77
2023/09/15 05:32:12;;;;;;;10.50;5.70;;;14.80;89.80;;;;;;5055190;28;20029;-78
2023/09/15 05:34:38;;;;;;;12.00;5.53;;;14.80;89.00;;;;;;5054162;28;20038;-78
2023/09/15 05:37:04;;;;;;;9.77;5.90;;;14.90;89.30;;;;;;5037671;28;20075;-78
2023/09/15 05:39:31;;;;;;;11.75;5.93;;;14.90;89.50;;;;;;5054060;28;20030;-78
2023/09/15 05:41:56;;;;;;;9.15;6.00;;;14.90;89.60;;;;;;5054100;28;20022;-77
2023/09/15 05:44:22;;;;;;;12.82;6.05;;;14.90;89.50;;;;;;5055004;28;20057;-79
2023/09/15 05:46:48;;;;;;;11.18;6.40;;;14.90;89.70;;;;;;5055007;28;20043;-78
2023/09/15 05:49:13;;;;;;;10.95;5.65;;;14.90;89.80;;;;;;5054958;28;20017;-78
2023/09/15 05:51:39;;;;;;;11.48;6.18;;;14.90;89.90;;;;;;5054859;28;20104;-78
2023/09/15 05:54:05;;;;;;;8.60;5.40;;;14.90;90.00;;;;;;5055004;28;20021;-78
2023/09/15 05:56:31;;;;;;;11.65;5.85;;;14.90;90.00;;;;;;5054814;28;20040;-78
2023/09/15 05:58:58;;;;;;;10.40;5.80;;;14.90;90.00;;;;;;5054753;28;20044;-78
2023/09/15 06:01:23;;;;;;;10.23;5.57;;;14.90;90.00;;;;;;5054764;28;20089;-78
2023/09/15 06:03:49;;;;;;;12.65;5.90;;;14.90;90.00;;;;;;5036808;28;20037;-78
2023/09/15 06:06:16;;;;;;;12.38;6.18;;;15.00;90.10;;;;;;5036989;28;20034;-79
2023/09/15 06:08:42;;;;;;;10.80;5.78;;;15.00;90.10;;;;;;5054580;28;20026;-78
2023/09/15 06:11:07;;;;;;;9.98;6.07;;;15.00;90.10;;;;;;5054602;28;20045;-77
2023/09/15 06:13:34;;;;;;;12.38;6.28;;;14.90;90.10;;;;;;5054722;28;20469;-77
2023/09/15 06:16:00;;;;;;;10.50;5.40;;;15.00;90.20;;;;;;5053534;28;20052;-78
2023/09/15 06:18:25;;;;;;;9.80;6.22;;;14.90;90.30;;;;;;5053536;28;20048;-78
2023/09/15 06:20:55;;;;;;;13.25;5.80;;;14.90;90.40;;;;;;5053535;28;20060;-78
2023/09/15 06:23:21;;;;;;;13.10;5.82;;;15.00;90.50;;;;;;5053485;28;20028;-78
2023/09/15 06:25:46;;;;;;;12.27;6.35;;;15.00;90.50;;;;;;5053531;28;20025;-79
2023/09/15 06:28:12;;;;;;;11.45;6.13;;;15.00;90.60;;;;;;5053298;28;20032;-79
2023/09/15 06:30:38;;;;;;;13.13;6.70;;;15.00;90.70;;;;;;5014079;28;1151185;-78
2023/09/15 06:33:04;;;;;;;15.43;6.85;;;15.00;91.00;;;;;;5054397;28;20025;-79
2023/09/15 06:35:29;;;;;;;12.55;6.72;;;14.90;91.10;;;;;;5037678;28;20034;-78
2023/09/15 06:37:55;;;;;;;13.00;6.63;;;14.90;91.20;;;;;;5054291;28;20021;-79
2023/09/15 06:40:20;;;;;;;13.73;6.85;;;14.90;91.20;;;;;;5037758;28;20029;-79
2023/09/15 06:42:46;;;;;;;11.48;7.15;;;15.00;91.30;;;;;;5054157;28;20043;-79
2023/09/15 06:45:12;;;;;;;12.02;6.43;;;15.10;91.00;;;;;;5054981;28;20528;-78
2023/09/15 06:47:38;;;;;;;11.27;6.38;;;15.10;91.30;;;;;;5054033;28;20056;-78
2023/09/15 06:50:04;;;;;;;15.05;6.72;;;15.10;91.30;;;;;;5037536;28;20025;-78
2023/09/15 06:52:30;;;;;;;9.70;6.05;;;15.10;91.30;;;;;;5037432;28;20057;-78
2023/09/15 06:54:56;;;;;;;10.57;5.53;;;15.20;91.40;;;;;;5053906;28;20025;-78
2023/09/15 06:57:22;;;;;;;11.00;6.13;;;15.20;91.40;;;;;;5054909;28;20051;-77
2023/09/15 06:59:47;;;;;;;13.57;6.47;;;15.30;91.40;;;;;;5054828;28;20025;-78
2023/09/15 07:02:13;;;;;;;10.65;6.15;;;15.30;91.40;;;;;;5054931;28;20465;-78
2023/09/15 07:04:39;;;;;;;10.35;5.95;;;15.40;91.50;;;;;;5053609;28;20044;-78
2023/09/15 07:07:04;;;;;;;12.57;6.60;;;15.40;91.50;;;;;;5053868;28;20021;-78
2023/09/15 07:09:30;;;;;;;10.93;5.47;;;15.40;91.60;;;;;;5053610;28;20026;-78
2023/09/15 07:11:55;;;;;;;9.40;5.25;;;15.50;91.60;;;;;;5053640;28;20018;-77
2023/09/15 07:14:21;;;;;;;11.35;5.95;;;15.50;91.50;;;;;;5053645;28;20034;-78
2023/09/15 07:16:47;;;;;;;11.30;5.47;;;15.50;91.40;;;;;;5036177;28;20052;-79
2023/09/15 07:19:13;;;;;;;11.60;5.57;;;15.60;91.60;;;;;;5053525;28;20055;-78
2023/09/15 07:21:40;;;;;;;10.18;5.50;;;15.60;91.60;;;;;;5054401;28;20078;-78
2023/09/15 07:24:09;;;;;;;13.43;6.40;;;15.70;91.60;;;;;;5053226;28;20029;-79
2023/09/15 07:26:35;;;;;;;13.40;6.00;;;15.70;91.50;;;;;;5054138;28;20403;-79
2023/09/15 07:29:01;;;;;;;13.45;6.20;;;15.80;91.40;;;;;;5053161;28;20069;-78
2023/09/15 07:31:27;;;;;;;11.05;6.10;;;15.80;91.50;;;;;;5036849;28;20040;-78
2023/09/15 07:33:53;;;;;;;10.70;5.68;;;15.90;91.60;;;;;;5053164;28;20141;-78
2023/09/15 07:36:19;;;;;;;12.68;6.43;;;15.80;91.40;;;;;;5053142;28;20041;-78
2023/09/15 07:38:46;;;;;;;13.25;6.88;;;15.90;91.50;;;;;;5054113;28;20085;-78
2023/09/15 07:41:13;;;;;;;13.02;7.35;;;15.90;91.40;;;;;;5054052;28;20021;-78
2023/09/15 07:43:39;;;;;;;10.20;6.22;;;16.00;91.40;;;;;;5053971;28;20022;-78
2023/09/15 07:46:04;;;;;;;12.13;6.30;;;16.10;91.70;;;;;;5053908;28;20112;-78
2023/09/15 07:48:31;;;;;;;13.15;6.50;;;16.20;91.10;;;;;;5053941;28;20021;-79
2023/09/15 07:50:57;;;;;;;12.90;6.25;;;16.20;91.20;;;;;;5053881;28;20014;-79
2023/09/15 07:53:23;;;;;;;11.60;6.15;;;16.30;91.20;;;;;;5052767;28;20025;-79
2023/09/15 07:55:48;;;;;;;11.02;5.93;;;16.30;91.00;;;;;;5053823;28;20029;-78
2023/09/15 07:58:14;;;;;;;12.65;6.82;;;16.40;91.10;;;;;;5036276;28;20060;-78
2023/09/15 08:00:40;;;;;;;13.30;6.70;;;16.50;91.00;;;;;;5052823;28;20027;-79
2023/09/15 08:03:06;;;;;;;10.82;5.93;;;16.50;90.80;;;;;;5052662;28;20029;-79
2023/09/15 08:05:32;;;;;;;10.90;5.85;;;16.60;90.90;;;;;;5036056;28;20030;-79
2023/09/15 08:07:57;;;;;;;13.05;5.80;;;16.70;91.00;;;;;;5052712;28;20030;-79
2023/09/15 08:10:23;;;;;;;10.10;6.43;;;16.80;91.00;;;;;;5036041;28;20042;-78
2023/09/15 08:12:52;;;;;;;9.27;5.97;;;16.80;90.90;;;;;;5052598;28;20022;-79
2023/09/15 08:15:22;;;;;;;11.35;6.40;;;16.90;90.70;;;;;;5053482;28;20028;-78
2023/09/15 08:17:48;;;;;;;10.80;6.40;;;16.90;90.60;;;;;;5053429;28;20033;-78
2023/09/15 08:20:14;;;;;;;10.43;6.18;;;17.00;90.30;;;;;;5052364;28;20043;-78
2023/09/15 08:22:41;;;;;;;12.23;6.38;;;16.90;90.10;;;;;;5053422;28;20065;-78
2023/09/15 08:25:07;;;;;;;12.77;6.45;;;17.00;90.40;;;;;;5035826;28;20021;-79
2023/09/15 08:27:34;;;;;;;11.60;6.60;;;17.10;90.60;;;;;;5053132;28;20035;-78
2023/09/15 08:30:00;;;;;;;10.07;6.10;;;17.20;90.40;;;;;;5052175;28;20038;-78
2023/09/15 08:32:26;;;;;;;15.80;7.00;;;17.30;90.50;;;;;;5035825;28;20043;-78
2023/09/15 08:34:53;;;;;;;12.82;6.07;;;17.30;90.30;;;;;;5053153;28;20034;-78
2023/09/15 08:37:19;;;;;;;11.35;6.20;;;17.40;90.20;;;;;;5053171;28;20032;-78
2023/09/15 08:39:45;;;;;;;12.38;5.95;;;17.50;90.40;;;;;;5053205;28;20037;-77
2023/09/15 08:42:23;;;;;;;10.30;5.57;;;17.50;90.50;;;;;;5052088;28;20030;-78
2023/09/15 08:44:49;;;;;;;10.63;5.97;;;17.60;90.30;;;;;;5053122;28;20080;-78
2023/09/15 08:47:16;;;;;;;11.02;5.88;;;17.70;90.40;;;;;;5053055;28;20472;-78
2023/09/15 08:49:43;;;;;;;12.68;5.88;;;17.80;90.40;;;;;;5053094;28;20048;-79
2023/09/15 08:52:09;;;;;;;9.18;5.30;;;18.00;90.20;;;;;;5035707;28;20029;-79
2023/09/15 08:54:35;;;;;;;11.18;5.65;;;18.10;90.00;;;;;;5053000;28;20033;-79
2023/09/15 08:57:01;;;;;;;11.27;5.65;;;18.10;89.70;;;;;;5052105;28;20030;-79
2023/09/15 08:59:27;;;;;;;12.68;5.57;;;18.20;89.70;;;;;;5051986;28;20083;-79
2023/09/15 09:01:53;;;;;;;9.65;5.70;;;18.30;89.10;;;;;;5053023;28;20039;-78
2023/09/15 09:04:19;;;;;;;10.38;5.70;;;18.40;87.30;;;;;;5051905;28;20052;-79
2023/09/15 09:06:45;;;;;;;10.35;5.88;;;18.40;87.30;;;;;;5051867;28;20037;-79
2023/09/15 09:09:13;;;;;;;10.75;5.28;;;18.40;87.40;;;;;;5051926;28;20041;-78
2023/09/15 09:11:38;;;;;;;8.75;5.05;;;18.40;86.00;;;;;;5051868;28;20053;-78
2023/09/15 09:14:11;;;;;;;8.27;5.05;;;18.50;86.90;;;;;;5052868;28;20032;-78
2023/09/15 09:16:37;;;;;;;10.25;4.80;;;18.60;86.40;;;;;;5052897;28;20022;-78
2023/09/15 09:19:06;;;;;;;10.60;5.60;;;18.80;87.00;;;;;;5051747;28;20022;-78
2023/09/15 09:21:33;;;;;;;12.45;5.65;;;18.90;86.10;;;;;;5035681;28;20018;-78
2023/09/15 09:23:59;;;;;;;11.82;5.78;;;18.90;85.30;;;;;;5052694;28;20048;-79
2023/09/15 09:26:25;;;;;;;13.00;5.60;;;18.90;85.90;;;;;;5051784;28;20054;-78
2023/09/15 09:28:54;;;;;;;10.70;4.90;;;19.10;85.30;;;;;;5051713;28;20022;-79
2023/09/15 09:31:25;;;;;;;9.25;5.07;;;19.20;85.80;;;;;;5052595;28;20042;-79
2023/09/15 09:33:51;;;;;;;11.15;5.50;;;19.30;85.20;;;;;;5035855;28;20033;-79
2023/09/15 09:36:18;;;;;;;9.20;5.15;;;19.40;83.00;;;;;;5052638;28;20105;-79
2023/09/15 09:38:46;;;;;;;10.27;5.63;;;19.50;84.30;;;;;;5051704;28;20033;-79
2023/09/15 09:41:13;;;;;;;10.23;5.35;;;19.60;84.00;;;;;;5056094;28;20025;-79
2023/09/15 09:43:39;;;;;;;8.05;5.63;;;19.60;83.40;;;;;;5055196;28;20022;-79
2023/09/15 09:46:06;;;;;;;9.77;6.00;;;19.70;83.40;;;;;;5055161;28;20052;-78
2023/09/15 09:48:34;;;;;;;9.32;5.90;;;19.80;83.40;;;;;;5055404;28;20032;-78
2023/09/15 09:51:04;;;;;;;10.88;5.93;;;19.90;83.30;;;;;;5055205;28;20120;-79
2023/09/15 09:53:33;;;;;;;13.38;7.18;;;20.00;83.40;;;;;;5055272;28;20018;-79
2023/09/15 09:56:04;;;;;;;12.75;6.70;;;20.10;82.50;;;;;;5055074;28;20014;-79
2023/09/15 09:58:31;;;;;;;13.00;7.22;;;20.20;82.30;;;;;;5055031;28;20026;-79
2023/09/15 10:00:58;;;;;;;13.07;6.47;;;20.20;81.00;;;;;;5055973;28;20085;-78
2023/09/15 10:03:24;;;;;;;14.18;7.43;;;20.20;81.60;;;;;;5038381;28;20029;-78
2023/09/15 10:05:50;;;;;;;11.30;7.28;;;20.20;80.50;;;;;;5055838;28;20051;-78
2023/09/15 10:08:16;;;;;;;11.65;6.85;;;20.30;80.40;;;;;;5054756;28;20102;-78
2023/09/15 10:10:44;;;;;;;12.15;7.20;;;20.30;81.10;;;;;;5055762;28;20571;-78
2023/09/15 10:13:17;;;;;;;14.32;6.78;;;20.40;80.10;;;;;;5054792;28;20049;-78
2023/09/15 10:15:44;;;;;;;13.43;7.50;;;20.50;79.80;;;;;;5054740;28;20040;-79
2023/09/15 10:18:14;;;;;;;12.82;7.88;;;20.60;81.00;;;;;;5055603;28;20473;-78
2023/09/15 10:20:43;;;;;;;13.77;7.00;;;20.70;80.40;;;;;;5054794;28;20021;-78
2023/09/15 10:23:12;;;;;;;14.23;7.55;;;20.80;78.90;;;;;;5055617;28;20029;-78
2023/09/15 10:25:45;;;;;;;13.05;7.70;;;20.80;79.40;;;;;;5054440;28;20032;-79
2023/09/15 10:28:11;;;;;;;12.85;7.13;;;21.00;78.70;;;;;;5054606;28;20048;-78
2023/09/15 10:30:38;;;;;;;12.00;7.25;;;21.00;77.90;;;;;;5054111;28;20050;-79
2023/09/15 10:33:07;;;;;;;12.95;7.00;;;21.00;77.10;;;;;;5054293;28;20025;-79
2023/09/15 10:35:33;;;;;;;11.40;6.85;;;21.00;78.60;;;;;;5054178;28;20038;-78
2023/09/15 10:38:02;;;;;;;11.70;6.28;;;21.10;79.00;;;;;;5055297;28;20045;-79
2023/09/15 10:40:41;;;;;;;9.98;6.50;;;21.20;78.60;;;;;;5055234;28;20033;-79
2023/09/15 10:43:07;;;;;;;9.40;4.97;;;21.40;78.20;;;;;;5054315;28;20029;-79
2023/09/15 10:45:33;;;;;;;10.85;5.10;;;21.30;75.60;;;;;;5054225;28;20033;-78
2023/09/15 10:48:00;;;;;;;6.20;4.70;;;21.30;76.70;;;;;;5054169;28;20052;-78
2023/09/15 10:50:34;;;;;;;9.23;5.68;;;21.40;76.30;;;;;;5053376;28;20026;-79
2023/09/15 10:53:10;;;;;;;10.80;5.32;;;21.50;75.30;;;;;;5053877;28;20029;-79
2023/09/15 10:55:37;;;;;;;10.70;5.72;;;21.50;76.80;;;;;;5038011;28;20025;-79
2023/09/15 10:58:04;;;;;;;8.00;5.25;;;21.60;76.70;;;;;;5053934;28;20060;-79
2023/09/15 11:00:30;;;;;;;6.07;4.07;;;21.70;76.70;;;;;;5053757;28;20025;-79
2023/09/15 11:02:56;;;;;;;7.28;4.55;;;21.80;75.10;;;;;;5054819;28;20032;-80
2023/09/15 11:05:22;;;;;;;7.65;4.95;;;21.80;75.40;;;;;;5054658;28;20029;-80
2023/09/15 11:07:49;;;;;;;8.80;4.95;;;21.90;76.00;;;;;;5053823;28;20037;-79
2023/09/15 11:10:15;;;;;;;10.20;5.40;;;22.00;75.00;;;;;;5053681;28;20090;-78
2023/09/15 11:12:40;;;;;;;7.32;4.80;;;22.00;75.10;;;;;;5053735;28;20026;-79
2023/09/15 11:15:08;;;;;;;10.43;4.65;;;22.00;74.40;;;;;;5053686;28;20097;-79
2023/09/15 11:17:34;;;;;;;12.55;4.90;;;22.10;76.10;;;;;;5053508;28;20022;-79
2023/09/15 11:20:05;;;;;;;8.70;4.50;;;22.20;75.50;;;;;;5037148;28;20101;-79
2023/09/15 11:22:32;;;;;;;8.13;3.80;;;22.20;74.40;;;;;;5053454;28;20025;-79
2023/09/15 11:24:58;;;;;;;8.02;4.50;;;22.20;74.20;;;;;;5054280;28;20022;-79
2023/09/15 11:27:23;;;;;;;6.63;4.25;;;22.40;74.60;;;;;;5054377;28;20062;-79
2023/09/15 11:29:49;;;;;;;8.77;4.13;;;22.40;74.50;;;;;;5053150;28;20053;-79
2023/09/15 11:32:15;;;;;;;11.10;5.10;;;22.60;75.00;;;;;;5053357;28;20053;-78
2023/09/15 11:34:41;;;;;;;10.02;5.03;;;22.60;72.20;;;;;;5054239;28;20052;-79
2023/09/15 11:37:08;;;;;;;7.35;4.30;;;22.50;72.80;;;;;;5054214;28;20085;-78
2023/09/15 11:39:33;;;;;;;10.27;4.47;;;22.50;73.50;;;;;;5053115;28;20021;-78
2023/09/15 11:42:01;;;;;;;6.93;4.25;;;22.60;72.50;;;;;;5053280;28;20041;-78
2023/09/15 11:44:31;;;;;;;6.63;3.97;;;22.50;72.00;;;;;;5052973;28;20022;-78
2023/09/15 11:46:59;;;;;;;7.90;4.32;;;22.50;72.20;;;;;;5052910;28;20025;-80
2023/09/15 11:49:25;;;;;;;5.95;3.63;;;22.60;73.40;;;;;;5053051;28;20055;-79
2023/09/15 11:51:53;;;;;;;9.70;4.63;;;22.80;73.40;;;;;;5053869;28;20124;-79
2023/09/15 11:54:19;;;;;;;8.27;4.05;;;22.90;73.30;;;;;;5053888;28;20025;-79
2023/09/15 11:56:46;;;;;;;6.72;4.03;;;23.00;72.50;;;;;;5053748;28;20037;-79
2023/09/15 11:59:13;;;;;;;7.63;3.78;;;23.00;72.60;;;;;;5052637;28;20025;-79
2023/09/15 12:01:40;;;;;;;6.30;3.60;;;23.10;72.20;;;;;;5053609;28;20032;-79
2023/09/15 12:04:06;;;;;;;7.25;4.35;;;23.00;71.50;;;;;;5052560;28;20028;-79
2023/09/15 12:06:32;;;;;;;7.93;4.10;;;23.20;72.20;;;;;;5053635;28;20022;-79
2023/09/15 12:08:58;;;;;;;6.22;3.70;;;23.20;71.20;;;;;;5052658;28;20093;-79
2023/09/15 12:11:24;;;;;;;5.60;4.25;;;23.20;71.00;;;;;;5052661;28;20021;-79
2023/09/15 12:13:54;;;;;;;7.72;4.15;;;23.10;70.20;;;;;;5052472;28;20052;-78
2023/09/15 12:16:26;;;;;;;6.10;3.58;;;23.00;71.00;;;;;;5052606;28;20029;-78
2023/09/15 12:18:52;;;;;;;5.78;3.42;;;23.10;72.10;;;;;;5052502;28;20028;-79
2023/09/15 12:21:24;;;;;;;6.60;3.83;;;23.20;71.80;;;;;;5052382;28;20034;-79
2023/09/15 12:23:54;;;;;;;8.98;3.90;;;23.20;70.70;;;;;;5053499;28;20030;-79
2023/09/15 12:26:21;;;;;;;8.15;4.38;;;23.30;71.00;;;;;;5052287;28;20017;-79
2023/09/15 12:28:47;;;;;;;6.70;4.00;;;23.30;69.70;;;;;;5035864;28;20033;-78
2023/09/15 12:31:22;;;;;;;6.20;3.40;;;23.40;70.20;;;;;;5053068;28;20053;-78
2023/09/15 12:33:54;;;;;;;5.85;2.85;;;23.40;69.00;;;;;;5053228;28;20045;-79
2023/09/15 12:36:21;;;;;;;4.90;2.92;;;23.40;68.00;;;;;;5052341;28;20025;-78